Time;durP1;ratioP1;P1;durP2;ratioP2;P2;SDS_P1;SDS_P2;PMS_P1;PMS_P2;Temp;Humidity;BMP_temperature;BMP_pressure;BME280_temperature;BME280_humidity;BME280_pressure;Samples;Min_cycle;Max_cycle;Signal;HPM_P1;HPM_P2
2023/05/03 00:02:04;;;;;;;9.55;6.25;;;;;;;16.55;60.09;99992.69;4294714;33;20179;-87
2023/05/03 00:04:30;;;;;;;8.20;5.93;;;;;;;16.48;60.09;99988.69;4331062;33;20083;-88
2023/05/03 00:06:56;;;;;;;10.38;6.20;;;;;;;16.38;60.08;99984.84;4319033;33;20111;-88
2023/05/03 00:09:21;;;;;;;10.32;6.80;;;;;;;16.37;60.08;99991.03;4332725;33;20460;-89
2023/05/03 00:11:47;;;;;;;8.52;6.80;;;;;;;16.43;60.08;99988.06;4331196;33;20120;-89
2023/05/03 00:14:12;;;;;;;11.45;6.22;;;;;;;16.66;60.10;99986.88;4330581;33;20142;-88
2023/05/03 00:16:38;;;;;;;12.25;6.70;;;;;;;16.56;60.10;99989.12;4316314;33;20123;-89
2023/05/03 00:19:03;;;;;;;9.60;7.32;;;;;;;16.56;60.09;99984.75;4325955;33;20203;-89
2023/05/03 00:21:28;;;;;;;9.07;6.62;;;;;;;16.65;60.10;99987.81;4315892;33;21032;-89
2023/05/03 00:23:54;;;;;;;8.18;5.87;;;;;;;16.52;60.09;99985.81;4325202;33;20147;-89
2023/05/03 00:26:20;;;;;;;10.02;6.55;;;;;;;16.62;60.10;99978.31;4317753;33;20103;-88
2023/05/03 00:28:45;;;;;;;9.77;6.55;;;;;;;16.50;60.09;99982.41;4318542;33;20111;-87
2023/05/03 00:31:11;;;;;;;10.15;6.10;;;;;;;16.62;60.10;99985.34;4315918;33;20104;-88
2023/05/03 00:33:36;;;;;;;10.80;6.37;;;;;;;16.66;60.10;99979.88;4324222;33;20124;-88
2023/05/03 00:36:12;;;;;;;8.73;6.05;;;;;;;16.72;60.10;99986.56;4331869;33;20126;-88
2023/05/03 00:38:38;;;;;;;8.85;6.12;;;;;;;16.53;60.09;99979.63;4318745;33;20127;-89
2023/05/03 00:41:03;;;;;;;11.52;6.97;;;;;;;16.50;60.09;99976.31;4332477;33;20118;-88
2023/05/03 00:43:30;;;;;;;12.88;6.40;;;;;;;16.49;60.09;99990.38;4333420;33;20113;-89
2023/05/03 00:45:55;;;;;;;8.40;6.22;;;;;;;16.41;60.09;99989.94;4326422;33;20118;-89
2023/05/03 00:48:21;;;;;;;9.55;6.68;;;;;;;16.30;60.07;99987.84;4314283;33;20115;-89
2023/05/03 00:50:46;;;;;;;9.35;6.32;;;;;;;16.46;60.08;99987.91;4331867;33;20099;-89
2023/05/03 00:53:12;;;;;;;12.82;6.10;;;;;;;16.62;60.10;99994.06;4303974;33;20156;-88
2023/05/03 00:55:38;;;;;;;8.88;6.85;;;;;;;16.39;60.08;99997.06;4317684;33;20114;-88
2023/05/03 00:58:04;;;;;;;10.20;6.62;;;;;;;16.38;60.08;99993.56;4320182;33;20115;-87
2023/05/03 01:00:29;;;;;;;8.35;6.70;;;;;;;16.38;60.08;100001.47;4307851;33;20119;-87
2023/05/03 01:02:55;;;;;;;8.55;7.03;;;;;;;16.49;60.08;100004.38;4320170;33;20158;-87
2023/05/03 01:05:21;;;;;;;11.50;7.07;;;;;;;16.48;60.09;99999.19;4307884;33;20148;-89
2023/05/03 01:07:52;;;;;;;12.75;6.85;;;;;;;16.66;60.10;100006.16;4305790;33;20175;-88
2023/05/03 01:10:26;;;;;;;9.90;6.60;;;;;;;16.54;60.08;100006.75;4332917;33;20108;-88
2023/05/03 01:13:05;;;;;;;8.80;6.57;;;;;;;16.55;60.09;100008.44;4317742;33;20122;-88
2023/05/03 01:15:38;;;;;;;9.55;7.07;;;;;;;16.50;60.09;100010.47;4306285;33;20126;-88
2023/05/03 01:18:11;;;;;;;9.63;6.53;;;;;;;16.48;60.09;100007.06;4317245;33;20480;-88
2023/05/03 01:20:36;;;;;;;9.23;6.93;;;;;;;16.61;60.08;100012.56;4317738;33;20131;-88
2023/05/03 01:23:11;;;;;;;8.77;6.90;;;;;;;16.55;60.09;100005.81;4317621;33;20084;-88
2023/05/03 01:25:36;;;;;;;9.68;7.05;;;;;;;16.65;60.09;100012.31;4305772;33;20517;-88
2023/05/03 01:28:02;;;;;;;8.50;6.72;;;;;;;16.60;60.09;100005.59;4328237;33;20135;-87
2023/05/03 01:30:27;;;;;;;10.32;6.68;;;;;;;16.58;60.09;100003.91;4327172;33;20175;-88
2023/05/03 01:33:03;;;;;;;10.00;6.55;;;;;;;16.72;60.10;100008.44;4320062;33;20100;-89
2023/05/03 01:35:47;;;;;;;11.30;6.50;;;;;;;16.73;60.09;100012.75;4320078;33;20095;-88
2023/05/03 01:38:13;;;;;;;10.55;6.75;;;;;;;16.70;60.10;100005.06;4333593;33;20104;-88
2023/05/03 01:40:42;;;;;;;10.55;6.30;;;;;;;16.64;60.09;100007.97;4318546;33;20409;-88
2023/05/03 01:43:10;;;;;;;11.23;6.85;;;;;;;16.86;60.11;100003.31;4333817;33;20087;-87
2023/05/03 01:45:35;;;;;;;10.20;7.28;;;;;;;16.71;60.10;100003.28;4319844;33;20087;-88
2023/05/03 01:48:00;;;;;;;8.93;6.80;;;;;;;16.50;60.09;100000.81;4319131;33;31684;-88
2023/05/03 01:50:26;;;;;;;11.32;7.12;;;;;;;16.67;60.09;99999.13;4310647;33;20796;-88
2023/05/03 01:52:52;;;;;;;9.23;6.80;;;;;;;16.55;60.09;99998.78;4333201;33;20567;-88
2023/05/03 01:55:17;;;;;;;12.50;7.47;;;;;;;16.72;60.10;99997.09;4322843;33;20083;-88
2023/05/03 01:57:43;;;;;;;16.37;7.05;;;;;;;16.60;60.09;99995.09;4319847;33;20618;-88
2023/05/03 02:00:09;;;;;;;10.77;7.50;;;;;;;16.66;60.09;99987.75;4319739;33;20120;-88
2023/05/03 02:02:34;;;;;;;9.80;7.37;;;;;;;16.78;60.11;99988.84;4333661;33;20084;-88
2023/05/03 02:05:00;;;;;;;9.93;8.07;;;;;;;16.80;60.10;99990.50;4331036;33;20177;-88
2023/05/03 02:07:25;;;;;;;10.30;7.82;;;;;;;16.65;60.09;99990.44;4306775;33;20431;-88
2023/05/03 02:09:50;;;;;;;8.90;6.72;;;;;;;16.71;60.10;99988.34;4328882;33;20151;-87
2023/05/03 02:12:16;;;;;;;9.90;7.05;;;;;;;16.60;60.09;99988.06;4333047;33;20095;-88
2023/05/03 02:14:41;;;;;;;10.43;7.40;;;;;;;16.61;60.09;99987.13;4321746;33;20136;-88
2023/05/03 02:17:07;;;;;;;12.37;7.47;;;;;;;16.53;60.08;99984.88;4319789;33;20119;-89
2023/05/03 02:19:32;;;;;;;11.73;7.80;;;;;;;16.55;60.09;99984.78;4331730;33;20119;-89
2023/05/03 02:21:58;;;;;;;10.43;6.72;;;;;;;16.57;60.09;99977.69;4315603;33;20466;-88
2023/05/03 02:24:23;;;;;;;13.13;7.82;;;;;;;16.69;60.09;99977.06;4332718;33;20138;-88
2023/05/03 02:26:49;;;;;;;10.95;7.18;;;;;;;16.44;60.08;99981.91;4319936;33;20123;-88
2023/05/03 02:29:14;;;;;;;10.20;7.40;;;;;;;16.47;60.08;99977.31;4311249;33;20167;-89
2023/05/03 02:31:40;;;;;;;13.13;7.37;;;;;;;16.49;60.09;99978.09;4316467;33;20135;-88
2023/05/03 02:34:05;;;;;;;13.43;7.45;;;;;;;16.68;60.09;99978.00;4307440;33;20182;-88
2023/05/03 02:36:31;;;;;;;9.82;7.40;;;;;;;16.77;60.09;99972.25;4333530;33;20146;-88
2023/05/03 02:38:56;;;;;;;11.38;7.70;;;;;;;16.63;60.10;99972.13;4331296;33;20540;-88
2023/05/03 02:41:21;;;;;;;12.32;7.50;;;;;;;16.64;60.10;99965.94;4324417;33;20437;-88
2023/05/03 02:43:47;;;;;;;9.25;7.05;;;;;;;16.56;60.09;99968.97;4319395;33;20105;-88
2023/05/03 02:46:12;;;;;;;11.63;6.70;;;;;;;16.60;60.09;99974.06;4332025;33;20144;-88
2023/05/03 02:48:38;;;;;;;10.40;6.93;;;;;;;16.78;60.11;99962.56;4332686;33;20132;-88
2023/05/03 02:51:04;;;;;;;11.77;6.80;;;;;;;16.64;60.09;99965.94;4319728;33;20171;-88
2023/05/03 02:53:30;;;;;;;10.43;7.30;;;;;;;16.62;60.10;99959.91;4319445;33;20117;-87
2023/05/03 02:55:56;;;;;;;12.60;7.25;;;;;;;16.54;60.08;99965.53;4319925;33;20187;-88
2023/05/03 02:58:21;;;;;;;11.43;7.22;;;;;;;16.45;60.08;99960.78;4334167;33;20530;-87
2023/05/03 03:00:46;;;;;;;10.27;6.95;;;;;;;16.59;60.09;99960.06;4320278;33;20096;-88
2023/05/03 03:03:12;;;;;;;11.02;7.62;;;;;;;16.68;60.09;99961.38;4334011;33;20135;-88
2023/05/03 03:05:37;;;;;;;9.30;7.03;;;;;;;16.56;60.09;99966.34;4320434;33;20422;-88
2023/05/03 03:08:03;;;;;;;11.02;7.35;;;;;;;16.45;60.08;99965.19;4333732;33;20147;-88
2023/05/03 03:10:28;;;;;;;10.13;6.85;;;;;;;16.44;60.08;99956.47;4320803;33;20200;-88
2023/05/03 03:12:54;;;;;;;9.35;7.50;;;;;;;16.54;60.08;99957.66;4334212;33;20195;-89
2023/05/03 03:15:20;;;;;;;10.77;6.95;;;;;;;16.53;60.08;99952.50;4320749;33;20108;-89
2023/05/03 03:17:45;;;;;;;9.18;7.12;;;;;;;16.51;60.09;99952.56;4332999;33;20175;-89
2023/05/03 03:20:11;;;;;;;11.73;6.78;;;;;;;16.47;60.09;99958.06;4320414;33;20129;-89
2023/05/03 03:22:40;;;;;;;11.63;6.97;;;;;;;16.50;60.08;99950.03;4320995;33;20096;-90
2023/05/03 03:25:06;;;;;;;11.10;7.78;;;;;;;16.36;60.07;99961.28;4320953;33;20150;-90
2023/05/03 03:27:32;;;;;;;12.20;7.65;;;;;;;16.44;60.08;99958.25;4320872;33;20111;-90
2023/05/03 03:29:58;;;;;;;11.50;7.03;;;;;;;16.47;60.08;99964.19;4320832;33;20161;-90
2023/05/03 03:32:23;;;;;;;13.73;7.80;;;;;;;16.38;60.08;99969.09;4326173;33;20122;-90
2023/05/03 03:34:48;;;;;;;10.13;7.28;;;;;;;16.38;60.07;99963.84;4324701;33;25425;-89
2023/05/03 03:37:14;;;;;;;10.00;6.80;;;;;;;16.35;60.07;99961.38;4320937;33;20210;-90
2023/05/03 03:39:40;;;;;;;14.80;7.87;;;;;;;16.55;60.09;99966.41;4320687;33;20115;-89
2023/05/03 03:42:06;;;;;;;13.73;7.75;;;;;;;16.46;60.08;99962.47;4332812;33;20396;-88
2023/05/03 03:44:31;;;;;;;9.00;6.80;;;;;;;16.48;60.08;99962.41;4320579;33;20130;-88
2023/05/03 03:46:57;;;;;;;10.73;7.22;;;;;;;16.56;60.09;99962.84;4332877;33;20148;-88
2023/05/03 03:49:22;;;;;;;11.05;7.95;;;;;;;16.58;60.09;99964.47;4333626;33;20156;-88
2023/05/03 03:51:47;;;;;;;10.65;7.78;;;;;;;16.64;60.09;99970.34;4320598;33;20449;-88
2023/05/03 03:54:13;;;;;;;12.30;7.05;;;;;;;16.55;60.09;99966.41;4319617;33;36208;-89
2023/05/03 03:56:38;;;;;;;10.82;7.87;;;;;;;16.68;60.09;99982.41;4332702;33;20151;-88
2023/05/03 03:59:04;;;;;;;12.82;7.45;;;;;;;16.53;60.08;99976.13;4320494;33;20107;-88
2023/05/03 04:01:29;;;;;;;10.35;7.75;;;;;;;16.64;60.09;99981.69;4333895;33;20131;-90
2023/05/03 04:03:55;;;;;;;14.15;7.97;;;;;;;16.79;60.10;99982.66;4320141;33;20183;-89
2023/05/03 04:06:20;;;;;;;8.52;6.60;;;;;;;16.53;60.08;99987.50;4320278;33;20100;-88
2023/05/03 04:08:46;;;;;;;11.35;7.35;;;;;;;16.68;60.09;99993.78;4332609;33;20138;-87
2023/05/03 04:11:11;;;;;;;9.93;6.70;;;;;;;16.55;60.09;99992.69;4332272;33;20087;-87
2023/05/03 04:13:36;;;;;;;9.95;7.15;;;;;;;16.64;60.09;99996.62;4333433;33;20121;-88
2023/05/03 04:16:02;;;;;;;8.75;7.05;;;;;;;16.67;60.09;99997.34;4320182;33;20111;-88
2023/05/03 04:18:28;;;;;;;11.85;6.72;;;;;;;16.71;60.10;99998.88;4333608;33;20118;-88
2023/05/03 04:20:53;;;;;;;10.30;6.18;;;;;;;16.66;60.09;100000.88;4319622;33;24449;-88
2023/05/03 04:23:18;;;;;;;11.30;6.95;;;;;;;16.71;60.10;100006.75;4333378;33;20119;-88
2023/05/03 04:25:47;;;;;;;11.63;6.72;;;;;;;16.71;60.10;100006.75;4319995;33;20665;-88
2023/05/03 04:28:12;;;;;;;9.35;6.57;;;;;;;16.77;60.09;100008.19;4333449;33;20595;-88
2023/05/03 04:30:38;;;;;;;8.50;6.85;;;;;;;16.77;60.09;100006.41;4331245;33;20131;-88
2023/05/03 04:33:03;;;;;;;12.80;6.95;;;;;;;16.83;60.10;100018.41;4319998;33;20358;-88
2023/05/03 04:35:28;;;;;;;11.07;6.65;;;;;;;16.91;60.10;100016.19;4332043;33;20184;-88
2023/05/03 04:37:54;;;;;;;11.63;7.05;;;;;;;16.88;60.10;100017.22;4332627;33;29989;-87
2023/05/03 04:40:19;;;;;;;9.70;6.93;;;;;;;16.79;60.11;100022.09;4332100;33;20423;-87
2023/05/03 04:42:45;;;;;;;13.85;7.47;;;;;;;16.88;60.10;100021.62;4332973;33;20630;-87
2023/05/03 04:45:10;;;;;;;9.57;7.43;;;;;;;16.81;60.10;100021.13;4319569;33;20404;-87
2023/05/03 04:47:36;;;;;;;11.10;7.60;;;;;;;17.08;60.12;100029.31;4333269;33;20103;-87
2023/05/03 04:50:02;;;;;;;12.73;7.28;;;;;;;17.03;60.12;100022.56;4332105;33;20127;-87
2023/05/03 04:52:28;;;;;;;9.63;7.22;;;;;;;16.90;60.10;100030.28;4333238;33;20753;-87
2023/05/03 04:54:53;;;;;;;13.00;7.45;;;;;;;17.14;60.11;100030.75;4319837;33;20434;-87
2023/05/03 04:57:18;;;;;;;9.32;6.70;;;;;;;17.19;60.12;100040.06;4320194;33;20110;-86
2023/05/03 04:59:44;;;;;;;12.65;7.22;;;;;;;17.19;60.12;100032.19;4307139;33;20520;-87
2023/05/03 05:02:09;;;;;;;12.90;7.12;;;;;;;16.99;60.10;100040.28;4333156;33;20084;-86
2023/05/03 05:04:35;;;;;;;9.30;7.03;;;;;;;17.02;60.12;100042.75;4319575;33;20476;-86
2023/05/03 05:07:00;;;;;;;10.85;7.53;;;;;;;17.16;60.12;100047.28;4318795;33;36134;-87
2023/05/03 05:09:27;;;;;;;10.98;7.68;;;;;;;17.22;60.12;100040.84;4319432;33;20159;-87
2023/05/03 05:11:52;;;;;;;10.57;7.78;;;;;;;17.24;60.13;100045.06;4319783;33;20506;-87
2023/05/03 05:14:18;;;;;;;9.75;7.68;;;;;;;17.34;60.13;100045.44;4331681;33;20153;-87
2023/05/03 05:16:43;;;;;;;10.35;7.30;;;;;;;17.29;60.12;100052.75;4319457;33;20459;-87
2023/05/03 05:19:09;;;;;;;11.65;8.10;;;;;;;17.27;60.12;100044.94;4319497;33;20104;-87
2023/05/03 05:21:34;;;;;;;10.27;7.43;;;;;;;17.35;60.13;100047.97;4332875;33;20131;-86
2023/05/03 05:24:00;;;;;;;12.27;7.47;;;;;;;17.49;60.14;100045.41;4332801;33;20155;-87
2023/05/03 05:26:26;;;;;;;13.05;7.50;;;;;;;17.53;60.13;100040.00;4319328;33;20127;-87
2023/05/03 05:28:51;;;;;;;10.45;8.00;;;;;;;17.38;60.12;100050.44;4319453;33;20118;-87
2023/05/03 05:31:17;;;;;;;11.65;7.10;;;;;;;17.61;60.14;100054.44;4331388;33;20108;-86
2023/05/03 05:33:43;;;;;;;10.48;7.60;;;;;;;17.58;60.13;100054.59;4332799;33;20104;-87
2023/05/03 05:36:08;;;;;;;16.08;8.35;;;;;;;17.67;60.14;100050.59;4319360;33;20369;-87
2023/05/03 05:38:33;;;;;;;16.30;7.35;;;;;;;17.70;60.15;100053.09;4332679;33;20130;-88
2023/05/03 05:40:59;;;;;;;10.88;6.35;;;;;;;17.99;60.16;100054.06;4330918;33;20369;-87
2023/05/03 05:43:24;;;;;;;9.52;6.82;;;;;;;17.95;60.16;100058.66;4333393;33;20104;-87
2023/05/03 05:45:50;;;;;;;8.57;6.62;;;;;;;17.89;60.16;100060.78;4334701;33;20131;-85
2023/05/03 05:48:15;;;;;;;8.30;6.28;;;;;;;17.89;60.15;100064.28;4334722;33;20390;-86
2023/05/03 05:50:41;;;;;;;7.10;5.53;;;;;;;17.91;60.15;100057.13;4333496;33;20484;-87
2023/05/03 05:53:07;;;;;;;11.27;6.35;;;;;;;17.77;60.14;100057.09;4335986;33;20116;-86
2023/05/03 05:55:33;;;;;;;11.20;6.00;;;;;;;17.71;60.15;100062.69;4336288;33;20100;-86
2023/05/03 05:57:58;;;;;;;10.65;6.20;;;;;;;17.87;60.16;100071.41;4323051;33;20091;-87
2023/05/03 06:00:24;;;;;;;10.48;6.47;;;;;;;17.73;60.15;100071.34;4336203;33;20528;-87
2023/05/03 06:02:49;;;;;;;7.40;5.87;;;;;;;17.85;60.15;100072.44;4334823;33;20104;-87
2023/05/03 06:05:15;;;;;;;10.57;6.07;;;;;;;17.96;60.16;100073.50;4334666;33;20096;-87
2023/05/03 06:07:40;;;;;;;7.45;5.78;;;;;;;17.87;60.16;100070.56;4334780;33;20500;-87
2023/05/03 06:10:06;;;;;;;7.57;5.43;;;;;;;17.83;60.15;100080.44;4321335;33;20183;-87
2023/05/03 06:12:32;;;;;;;9.02;5.97;;;;;;;18.00;60.17;100082.97;4321326;33;20182;-87
2023/05/03 06:14:57;;;;;;;8.75;5.82;;;;;;;17.77;60.14;100083.41;4334163;33;20120;-87
2023/05/03 06:17:24;;;;;;;9.07;5.55;;;;;;;17.74;60.15;100088.81;4333402;33;20128;-87
2023/05/03 06:19:49;;;;;;;10.25;8.93;;;;;;;17.78;60.15;100093.88;4321216;33;20099;-85
2023/05/03 06:22:15;;;;;;;9.82;7.12;;;;;;;17.92;60.16;100098.34;4334441;33;20159;-86
2023/05/03 06:24:40;;;;;;;12.20;8.68;;;;;;;17.92;60.16;100100.97;4334179;33;20139;-87
2023/05/03 06:27:06;;;;;;;9.68;6.55;;;;;;;18.10;60.17;100094.66;4320807;33;20155;-87
2023/05/03 06:29:31;;;;;;;8.70;6.68;;;;;;;18.41;60.19;100098.13;4320938;33;20115;-87
2023/05/03 06:31:57;;;;;;;9.10;6.00;;;;;;;18.46;60.19;100103.16;4321004;33;20475;-87
2023/05/03 06:34:22;;;;;;;6.75;5.30;;;;;;;18.67;60.19;100102.75;4320899;33;20496;-87
2023/05/03 06:36:48;;;;;;;7.07;5.43;;;;;;;18.74;60.20;100107.69;4334330;33;20127;-87
2023/05/03 06:39:14;;;;;;;8.10;5.18;;;;;;;18.79;60.20;100113.50;4320469;33;20104;-86
2023/05/03 06:41:39;;;;;;;13.32;8.00;;;;;;;18.83;60.20;100113.22;4333986;33;20441;-87
2023/05/03 06:44:06;;;;;;;27.85;13.13;;;;;;;18.83;60.20;100122.94;4334376;33;20495;-86
2023/05/03 06:46:31;;;;;;;13.60;7.07;;;;;;;18.76;60.20;100111.91;4320737;33;20091;-87
2023/05/03 06:48:56;;;;;;;9.75;5.50;;;;;;;18.88;60.21;100120.84;4320338;33;20182;-86
2023/05/03 06:51:26;;;;;;;7.18;5.40;;;;;;;18.99;60.21;100116.66;4320676;33;20421;-88
2023/05/03 06:53:53;;;;;;;6.70;5.55;;;;;;;19.00;60.21;100120.97;4320798;33;20557;-88
2023/05/03 06:56:18;;;;;;;7.50;5.53;;;;;;;19.05;60.21;100114.56;4321063;33;20845;-87
2023/05/03 06:58:44;;;;;;;9.00;6.10;;;;;;;19.24;60.23;100121.28;4319522;33;35546;-88
2023/05/03 07:01:09;;;;;;;9.32;6.00;;;;;;;19.40;60.24;100110.63;4332820;33;26526;-88
2023/05/03 07:03:36;;;;;;;9.93;5.50;;;;;;;19.42;60.23;100105.22;4320999;33;20429;-87
2023/05/03 07:06:01;;;;;;;7.00;5.85;;;;;;;19.57;60.24;100104.28;4332979;33;20464;-88
2023/05/03 07:08:27;;;;;;;8.40;5.90;;;;;;;19.62;60.25;100108.31;4320775;33;20158;-88
2023/05/03 07:10:52;;;;;;;8.18;5.87;;;;;;;19.86;60.26;100108.53;4333717;33;29211;-88
2023/05/03 07:13:17;;;;;;;7.05;5.50;;;;;;;20.00;60.26;100114.72;4334116;33;20111;-88
2023/05/03 07:15:44;;;;;;;7.25;5.15;;;;;;;19.91;60.26;100117.03;4332976;33;20092;-88
2023/05/03 07:18:09;;;;;;;7.75;5.90;;;;;;;20.14;60.27;100109.41;4308643;33;20472;-88
2023/05/03 07:20:35;;;;;;;11.57;5.95;;;;;;;20.35;60.28;100113.28;4320864;33;20178;-87
2023/05/03 07:23:00;;;;;;;6.57;5.35;;;;;;;20.06;60.26;100114.31;4320272;33;20527;-88
2023/05/03 07:25:26;;;;;;;8.35;5.03;;;;;;;20.09;60.27;100114.97;4320703;33;20141;-87
2023/05/03 07:27:51;;;;;;;8.23;5.80;;;;;;;20.19;60.28;100115.22;4320747;33;20154;-87
2023/05/03 07:30:17;;;;;;;9.45;5.47;;;;;;;20.17;60.28;100111.84;4333188;33;20471;-87
2023/05/03 07:32:43;;;;;;;6.65;5.28;;;;;;;20.24;60.29;100107.84;4334297;33;20092;-88
2023/05/03 07:35:08;;;;;;;6.25;4.87;;;;;;;20.38;60.28;100109.56;4333172;33;20395;-88
2023/05/03 07:37:33;;;;;;;7.03;5.28;;;;;;;20.44;60.28;100110.03;4333317;33;20107;-87
2023/05/03 07:39:59;;;;;;;5.40;4.85;;;;;;;20.55;60.29;100109.31;4334189;33;20154;-87
2023/05/03 07:42:25;;;;;;;11.48;5.18;;;;;;;20.46;60.28;100108.13;4333412;33;20108;-88
2023/05/03 07:44:51;;;;;;;5.95;4.75;;;;;;;20.61;60.29;100111.56;4332944;33;20570;-87
2023/05/03 07:47:16;;;;;;;6.03;4.62;;;;;;;20.68;60.30;100102.25;4334328;33;20107;-87
2023/05/03 07:49:42;;;;;;;10.13;4.53;;;;;;;20.78;60.30;100102.44;4334086;33;20159;-88
2023/05/03 07:52:07;;;;;;;5.78;4.68;;;;;;;20.96;60.32;100095.91;4320113;33;21811;-88
2023/05/03 07:54:33;;;;;;;7.40;4.78;;;;;;;20.81;60.31;100105.72;4332807;33;20096;-87
2023/05/03 07:56:58;;;;;;;6.70;4.80;;;;;;;20.73;60.31;100110.72;4320633;33;20116;-87
2023/05/03 07:59:24;;;;;;;9.43;4.75;;;;;;;20.64;60.30;100113.16;4332666;33;20485;-87
2023/05/03 08:01:49;;;;;;;8.40;5.30;;;;;;;20.68;60.30;100111.97;4333945;33;20189;-87
2023/05/03 08:04:14;;;;;;;11.45;5.40;;;;;;;20.68;60.30;100119.91;4320457;33;20092;-88
2023/05/03 08:06:41;;;;;;;10.82;5.87;;;;;;;20.78;60.30;100115.69;4319877;33;21401;-87
2023/05/03 08:09:07;;;;;;;9.93;5.62;;;;;;;20.79;60.31;100117.38;4333799;33;20111;-87
2023/05/03 08:11:33;;;;;;;7.55;5.45;;;;;;;20.94;60.31;100118.13;4333907;33;20173;-87
2023/05/03 08:13:58;;;;;;;6.25;4.87;;;;;;;21.24;60.33;100117.81;4332365;33;20159;-87
2023/05/03 08:16:24;;;;;;;7.57;4.82;;;;;;;21.17;60.32;100120.03;4320303;33;20115;-87
2023/05/03 08:18:50;;;;;;;7.60;5.43;;;;;;;21.15;60.32;100117.50;4332460;33;20475;-86
2023/05/03 08:21:16;;;;;;;10.23;5.12;;;;;;;21.20;60.33;100124.25;4333730;33;20095;-86
2023/05/03 08:23:41;;;;;;;6.82;5.10;;;;;;;21.33;60.34;100122.47;4333663;33;20104;-86
2023/05/03 08:26:08;;;;;;;7.65;5.50;;;;;;;21.57;60.35;100123.38;4332366;33;20123;-86
2023/05/03 08:28:33;;;;;;;8.02;4.93;;;;;;;21.56;60.34;100124.34;4333746;33;20107;-86
2023/05/03 08:30:59;;;;;;;7.20;4.87;;;;;;;21.98;60.37;100117.72;4333667;33;20425;-87
2023/05/03 08:33:24;;;;;;;8.70;4.87;;;;;;;21.98;60.37;100124.81;4320327;33;20376;-86
2023/05/03 08:35:50;;;;;;;7.50;4.20;;;;;;;21.93;60.37;100122.50;4333807;33;20145;-86
2023/05/03 08:38:16;;;;;;;4.85;4.25;;;;;;;22.02;60.38;100124.50;4333763;33;20171;-86
2023/05/03 08:40:41;;;;;;;6.78;4.72;;;;;;;22.06;60.37;100119.84;4332581;33;20119;-86
2023/05/03 08:43:08;;;;;;;7.85;4.57;;;;;;;22.07;60.38;100126.84;4332450;33;20099;-87
2023/05/03 08:45:34;;;;;;;5.15;3.92;;;;;;;22.50;60.40;100126.31;4320121;33;20104;-86
2023/05/03 08:48:01;;;;;;;5.95;4.05;;;;;;;22.85;60.42;100127.12;4320073;33;20129;-87
2023/05/03 08:50:27;;;;;;;5.50;3.70;;;;;;;23.19;60.42;100120.06;4333236;33;20095;-87
2023/05/03 08:52:52;;;;;;;7.00;4.62;;;;;;;23.36;60.44;100121.38;4320058;33;20167;-87
2023/05/03 08:55:18;;;;;;;5.43;4.62;;;;;;;23.23;60.44;100121.50;4319840;33;20127;-87
2023/05/03 08:57:43;;;;;;;6.03;4.40;;;;;;;23.28;60.44;100131.78;4319855;33;20099;-87
2023/05/03 09:00:10;;;;;;;5.90;4.20;;;;;;;23.17;60.43;100127.28;4333079;33;20099;-87
2023/05/03 09:02:38;;;;;;;8.40;4.25;;;;;;;23.00;60.42;100134.91;4332067;33;20111;-87
2023/05/03 09:05:05;;;;;;;6.40;4.32;;;;;;;23.02;60.42;100127.66;4332344;33;20131;-87
2023/05/03 09:07:31;;;;;;;6.45;4.22;;;;;;;23.18;60.43;100128.97;4331893;33;20174;-87
2023/05/03 09:09:57;;;;;;;12.57;4.40;;;;;;;23.27;60.44;100130.94;4332724;33;20108;-87
2023/05/03 09:12:36;;;;;;;7.10;3.75;;;;;;;23.32;60.44;100127.06;4331920;33;20123;-87
2023/05/03 09:15:02;;;;;;;5.93;3.60;;;;;;;23.39;60.45;100123.78;4319545;33;20142;-87
2023/05/03 09:17:28;;;;;;;4.47;3.90;;;;;;;23.45;60.45;100127.78;4320664;33;20123;-86
2023/05/03 09:19:56;;;;;;;6.70;4.03;;;;;;;23.28;60.44;100129.13;4321343;33;20091;-87
2023/05/03 09:22:24;;;;;;;10.43;4.30;;;;;;;23.04;60.43;100131.87;4321808;33;20166;-87
2023/05/03 09:24:59;;;;;;;6.00;3.87;;;;;;;23.05;60.43;100138.87;4321405;33;20112;-87
2023/05/03 09:27:25;;;;;;;6.95;3.62;;;;;;;22.97;60.43;100133.31;4321557;33;20107;-87
2023/05/03 09:29:50;;;;;;;4.75;3.72;;;;;;;22.78;60.41;100131.19;4334917;33;20126;-87
2023/05/03 09:32:16;;;;;;;3.92;3.42;;;;;;;22.94;60.42;100125.56;4321450;33;20099;-87
2023/05/03 09:34:42;;;;;;;9.57;3.37;;;;;;;22.94;60.42;100128.22;4321359;33;20115;-87
2023/05/03 09:37:07;;;;;;;3.85;3.10;;;;;;;22.89;60.42;100128.59;4321461;33;20112;-87
2023/05/03 09:39:35;;;;;;;3.83;3.42;;;;;;;22.98;60.43;100123.56;4333531;33;20100;-87
2023/05/03 09:42:09;;;;;;;7.57;3.83;;;;;;;23.12;60.44;100131.28;4309602;33;20108;-87
2023/05/03 09:44:42;;;;;;;4.70;3.72;;;;;;;23.30;60.45;100119.22;4321263;33;20119;-86
2023/05/03 09:47:08;;;;;;;4.68;3.20;;;;;;;23.27;60.45;100125.63;4321507;33;20115;-87
2023/05/03 09:49:36;;;;;;;4.30;3.28;;;;;;;23.35;60.44;100118.84;4321393;33;20092;-87
2023/05/03 09:52:01;;;;;;;3.92;3.37;;;;;;;23.38;60.45;100122.09;4321692;33;20118;-87
2023/05/03 09:54:27;;;;;;;5.72;3.60;;;;;;;23.16;60.44;100133.56;4321423;33;20115;-87
2023/05/03 09:56:54;;;;;;;6.03;3.70;;;;;;;23.23;60.44;100121.50;4309194;33;20111;-87
2023/05/03 09:59:19;;;;;;;5.32;3.83;;;;;;;23.39;60.45;100134.41;4334786;33;20179;-87
2023/05/03 10:01:45;;;;;;;5.03;3.10;;;;;;;23.52;60.45;100124.50;4321471;33;20437;-87
2023/05/03 10:04:10;;;;;;;7.93;4.05;;;;;;;23.39;60.45;100117.63;4321175;33;20146;-87
2023/05/03 10:06:42;;;;;;;4.43;3.33;;;;;;;23.57;60.47;100117.03;4321338;33;20139;-87
2023/05/03 10:09:20;;;;;;;7.07;3.42;;;;;;;23.69;60.47;100125.84;4321694;33;20096;-87
2023/05/03 10:11:52;;;;;;;7.85;4.00;;;;;;;23.88;60.47;100115.41;4321269;33;20441;-87
2023/05/03 10:14:21;;;;;;;5.85;3.55;;;;;;;23.99;60.49;100111.87;4333465;33;20481;-87
2023/05/03 10:16:48;;;;;;;6.12;3.65;;;;;;;23.94;60.48;100110.56;4321244;33;20107;-87
2023/05/03 10:19:16;;;;;;;6.30;4.30;;;;;;;23.79;60.47;100108.19;4321316;33;20160;-86
2023/05/03 10:22:04;;;;;;;7.20;3.95;;;;;;;23.72;60.47;100111.47;4321280;33;20429;-87
2023/05/03 10:24:30;;;;;;;6.15;4.15;;;;;;;23.46;60.46;100114.38;4334615;33;20174;-87
2023/05/03 10:26:56;;;;;;;5.32;3.62;;;;;;;23.24;60.44;100117.03;4335045;33;20139;-87
2023/05/03 10:29:34;;;;;;;4.80;3.92;;;;;;;23.07;60.43;100122.81;4320446;33;20147;-87
2023/05/03 10:32:03;;;;;;;4.15;3.62;;;;;;;23.04;60.44;100118.59;4334495;33;20114;-87
2023/05/03 10:34:39;;;;;;;5.22;3.95;;;;;;;23.05;60.44;100117.63;4334550;33;20130;-87
2023/05/03 10:37:09;;;;;;;4.40;3.97;;;;;;;23.00;60.44;100113.66;4320971;33;20115;-86
2023/05/03 10:39:34;;;;;;;5.78;4.70;;;;;;;22.81;60.43;100116.84;4334434;33;20532;-87
2023/05/03 10:42:06;;;;;;;6.45;4.05;;;;;;;22.73;60.43;100120.09;4321027;33;20104;-87
2023/05/03 10:44:48;;;;;;;6.62;4.28;;;;;;;22.79;60.42;100118.78;4321215;33;20111;-87
2023/05/03 10:47:14;;;;;;;5.85;3.97;;;;;;;22.81;60.43;100108.88;4322117;33;20103;-87
2023/05/03 10:49:40;;;;;;;7.90;3.97;;;;;;;22.76;60.42;100106.59;4320920;33;20166;-87
2023/05/03 10:52:37;;;;;;;5.45;4.18;;;;;;;22.73;60.42;100104.19;4334190;33;20080;-86
2023/05/03 10:55:11;;;;;;;5.35;3.55;;;;;;;23.00;60.43;100103.88;4334402;33;20136;-87
2023/05/03 10:57:40;;;;;;;5.35;3.58;;;;;;;22.99;60.43;100098.69;4320898;33;20197;-87
2023/05/03 11:00:11;;;;;;;4.62;3.65;;;;;;;23.22;60.45;100095.91;4321099;33;20122;-87
2023/05/03 11:02:37;;;;;;;8.70;4.10;;;;;;;23.21;60.44;100104.00;4321265;33;20383;-87
2023/05/03 11:05:04;;;;;;;7.50;3.70;;;;;;;23.10;60.43;100099.53;4320800;33;20104;-87
2023/05/03 11:07:30;;;;;;;4.45;3.87;;;;;;;23.19;60.45;100101.47;4320840;33;20797;-87
2023/05/03 11:09:56;;;;;;;5.80;3.40;;;;;;;23.19;60.44;100098.81;4308608;33;20182;-87
2023/05/03 11:12:21;;;;;;;5.05;3.28;;;;;;;23.21;60.44;100091.59;4334234;33;20131;-87
2023/05/03 11:14:48;;;;;;;4.50;3.25;;;;;;;23.34;60.46;100095.91;4333769;33;28815;-87
2023/05/03 11:17:14;;;;;;;4.53;3.58;;;;;;;23.20;60.44;100107.63;4321285;33;20231;-88
2023/05/03 11:19:41;;;;;;;4.97;3.30;;;;;;;23.29;60.45;100106.91;4320142;33;28288;-87
2023/05/03 11:22:07;;;;;;;9.60;4.32;;;;;;;23.19;60.44;100101.47;4320809;33;20096;-87